createdAt,value
2019-03-30T00:00:09.673Z,0
2019-03-30T00:01:09.399Z,0
2019-03-30T00:02:09.381Z,0
2019-03-30T00:03:09.365Z,0
2019-03-30T00:04:09.351Z,0
2019-03-30T00:05:09.572Z,0
2019-03-30T00:06:09.312Z,0
2019-03-30T00:07:09.542Z,0
2019-03-30T00:08:09.531Z,0
2019-03-30T00:09:09.511Z,0
2019-03-30T00:10:09.578Z,0
2019-03-30T00:11:09.482Z,0
2019-03-30T00:12:09.225Z,0
2019-03-30T00:13:09.211Z,0
2019-03-30T00:14:09.210Z,0
2019-03-30T00:15:09.466Z,0
2019-03-30T00:16:09.414Z,0
2019-03-30T00:17:09.388Z,0
2019-03-30T00:18:09.378Z,0
2019-03-30T00:19:09.356Z,0
2019-03-30T00:20:09.348Z,0
2019-03-30T00:21:09.085Z,0
2019-03-30T00:22:09.364Z,0
2019-03-30T00:23:09.065Z,0
2019-03-30T00:24:09.299Z,0
2019-03-30T00:25:09.286Z,0
2019-03-30T00:26:09.289Z,0
2019-03-30T00:27:08.746Z,0
2019-03-30T00:28:09.216Z,0
2019-03-30T00:29:09.207Z,0
2019-03-30T00:30:09.199Z,0
2019-03-30T00:31:09.184Z,0
2019-03-30T00:32:09.159Z,0
2019-03-30T00:33:09.150Z,0
2019-03-30T00:34:09.129Z,0
2019-03-30T00:35:09.117Z,0
2019-03-30T00:36:09.115Z,0
2019-03-30T00:37:08.831Z,0
2019-03-30T00:38:09.069Z,0
2019-03-30T00:39:09.049Z,0
2019-03-30T00:40:09.031Z,0
2019-03-30T00:41:08.776Z,0
2019-03-30T00:42:08.764Z,0
2019-03-30T00:43:08.989Z,0
2019-03-30T00:44:08.977Z,0
2019-03-30T00:45:08.969Z,0
2019-03-30T00:46:08.690Z,0
2019-03-30T00:47:08.928Z,0
2019-03-30T00:48:08.909Z,0
2019-03-30T00:49:08.896Z,0
2019-03-30T00:50:08.884Z,0
2019-03-30T00:51:08.371Z,0
2019-03-30T00:52:08.856Z,0
2019-03-30T00:53:08.836Z,0
2019-03-30T00:54:08.815Z,0
2019-03-30T00:55:08.799Z,0
2019-03-30T00:56:08.793Z,0
2019-03-30T00:57:08.771Z,0
2019-03-30T00:58:08.753Z,0
2019-03-30T00:59:08.735Z,0
2019-03-30T01:00:08.740Z,0
2019-03-30T01:01:08.704Z,0
2019-03-30T01:02:08.697Z,0
2019-03-30T01:03:08.674Z,0
2019-03-30T01:04:08.758Z,0
2019-03-30T01:05:08.639Z,0
2019-03-30T01:06:08.378Z,0
2019-03-30T01:07:08.611Z,0
2019-03-30T01:08:08.594Z,0
2019-03-30T01:09:08.338Z,0
2019-03-30T01:10:08.082Z,0
2019-03-30T01:11:08.301Z,0
2019-03-30T01:12:08.526Z,0
2019-03-30T01:13:08.517Z,0
2019-03-30T01:14:08.514Z,0
2019-03-30T01:15:08.488Z,0
2019-03-30T01:16:08.467Z,0
2019-03-30T01:17:08.456Z,0
2019-03-30T01:18:08.201Z,0
2019-03-30T01:19:08.456Z,0
2019-03-30T01:20:10.273Z,0
2019-03-30T01:21:08.393Z,0
2019-03-30T01:22:08.377Z,0
2019-03-30T01:23:08.364Z,0
2019-03-30T01:24:08.101Z,0
2019-03-30T01:25:08.318Z,0
2019-03-30T01:26:08.072Z,0
2019-03-30T01:27:08.056Z,0
2019-03-30T01:28:08.276Z,0
2019-03-30T01:29:08.261Z,0
2019-03-30T01:30:22.111Z,0
2019-03-30T01:31:08.225Z,0
2019-03-30T01:32:08.208Z,0
2019-03-30T01:33:08.207Z,0
2019-03-30T01:34:08.185Z,0
2019-03-30T01:35:08.435Z,0
2019-03-30T01:36:08.144Z,0
2019-03-30T01:37:08.129Z,0
2019-03-30T01:38:08.128Z,0
2019-03-30T01:39:08.093Z,0
2019-03-30T01:40:08.078Z,0
2019-03-30T01:41:07.821Z,0
2019-03-30T01:42:08.048Z,0
2019-03-30T01:43:08.039Z,0
2019-03-30T01:44:07.774Z,0
2019-03-30T01:45:08.021Z,0
2019-03-30T01:46:07.983Z,0
2019-03-30T01:47:07.967Z,0
2019-03-30T01:48:07.954Z,0
2019-03-30T01:49:07.697Z,0
2019-03-30T01:50:21.283Z,0
2019-03-30T01:51:07.930Z,0
2019-03-30T01:52:07.896Z,0
2019-03-30T01:53:07.628Z,0
2019-03-30T01:54:07.632Z,0
2019-03-30T01:55:07.840Z,0
2019-03-30T01:56:07.591Z,0
2019-03-30T01:57:07.810Z,0
2019-03-30T01:58:07.545Z,0
2019-03-30T01:59:07.773Z,0
2019-03-30T02:00:07.524Z,0
2019-03-30T02:01:07.756Z,0
2019-03-30T02:02:07.723Z,0
2019-03-30T02:03:07.714Z,0
2019-03-30T02:04:07.703Z,0
2019-03-30T02:05:07.681Z,0
2019-03-30T02:06:07.669Z,0
2019-03-30T02:07:07.649Z,0
2019-03-30T02:08:07.637Z,0
2019-03-30T02:09:07.609Z,0
2019-03-30T02:10:07.358Z,0
2019-03-30T02:11:07.581Z,0
2019-03-30T02:12:07.566Z,0
2019-03-30T02:13:07.545Z,0
2019-03-30T02:14:07.533Z,0
2019-03-30T02:15:07.528Z,0
2019-03-30T02:16:07.250Z,0
2019-03-30T02:17:07.498Z,0
2019-03-30T02:18:07.461Z,0
2019-03-30T02:19:07.459Z,0
2019-03-30T02:20:07.502Z,0
2019-03-30T02:21:07.422Z,0
2019-03-30T02:22:07.405Z,0
2019-03-30T02:23:07.381Z,0
2019-03-30T02:24:07.387Z,0
2019-03-30T02:25:07.460Z,0
2019-03-30T02:26:07.333Z,0
2019-03-30T02:27:07.319Z,0
2019-03-30T02:28:09.386Z,0
2019-03-30T02:29:07.048Z,0
2019-03-30T02:30:07.653Z,0
2019-03-30T02:31:07.267Z,0
2019-03-30T02:32:07.246Z,0
2019-03-30T02:33:07.316Z,0
2019-03-30T02:34:06.973Z,0
2019-03-30T02:35:07.577Z,0
2019-03-30T02:36:06.944Z,0
2019-03-30T02:37:07.163Z,0
2019-03-30T02:38:07.154Z,0
2019-03-30T02:39:07.140Z,0
2019-03-30T02:40:06.862Z,0
2019-03-30T02:41:07.130Z,0
2019-03-30T02:42:07.090Z,0
2019-03-30T02:43:07.059Z,0
2019-03-30T02:44:07.046Z,0
2019-03-30T02:45:06.809Z,0
2019-03-30T02:46:07.026Z,0
2019-03-30T02:47:07.023Z,0
2019-03-30T02:48:06.980Z,0
2019-03-30T02:49:06.962Z,0
2019-03-30T02:50:06.969Z,0
2019-03-30T02:51:06.933Z,0
2019-03-30T02:52:06.940Z,0
2019-03-30T02:53:06.660Z,0
2019-03-30T02:54:06.637Z,0
2019-03-30T02:55:06.888Z,0
2019-03-30T02:56:06.878Z,0
2019-03-30T02:57:06.832Z,0
2019-03-30T02:58:06.833Z,0
2019-03-30T02:59:06.545Z,0
2019-03-30T03:00:06.536Z,0
2019-03-30T03:01:06.789Z,0
2019-03-30T03:02:06.507Z,0
2019-03-30T03:03:06.493Z,0
2019-03-30T03:04:06.714Z,0
2019-03-30T03:05:06.734Z,0
2019-03-30T03:06:06.706Z,0
2019-03-30T03:07:06.662Z,0
2019-03-30T03:08:06.671Z,0
2019-03-30T03:09:06.625Z,0
2019-03-30T03:10:06.374Z,0
2019-03-30T03:11:06.595Z,0
2019-03-30T03:12:06.601Z,0
2019-03-30T03:13:06.567Z,0
2019-03-30T03:14:06.549Z,0
2019-03-30T03:15:06.628Z,0
2019-03-30T03:16:06.514Z,0
2019-03-30T03:17:06.504Z,0
2019-03-30T03:18:06.494Z,0
2019-03-30T03:19:06.486Z,0
2019-03-30T03:20:06.449Z,0
2019-03-30T03:21:14.417Z,0
2019-03-30T03:22:06.413Z,0
2019-03-30T03:23:06.529Z,0
2019-03-30T03:24:06.383Z,0
2019-03-30T03:25:06.393Z,0
2019-03-30T03:26:06.354Z,0
2019-03-30T03:27:06.340Z,0
2019-03-30T03:28:05.836Z,0
2019-03-30T03:29:06.298Z,0
2019-03-30T03:30:06.371Z,0
2019-03-30T03:31:06.314Z,0
2019-03-30T03:32:06.445Z,0
2019-03-30T03:33:06.345Z,0
2019-03-30T03:34:06.299Z,0
2019-03-30T03:35:06.243Z,0
2019-03-30T03:36:06.179Z,0
2019-03-30T03:37:05.918Z,0
2019-03-30T03:38:05.930Z,0
2019-03-30T03:39:06.133Z,0
2019-03-30T03:40:06.129Z,0
2019-03-30T03:41:06.099Z,0
2019-03-30T03:42:05.848Z,0
2019-03-30T03:43:06.080Z,0
2019-03-30T03:44:05.822Z,0
2019-03-30T03:45:05.952Z,0
2019-03-30T03:46:06.029Z,0
2019-03-30T03:47:05.768Z,0
2019-03-30T03:48:05.522Z,0
2019-03-30T03:49:06.046Z,0
2019-03-30T03:50:06.001Z,0
2019-03-30T03:51:24.424Z,0
2019-03-30T03:52:05.706Z,0
2019-03-30T03:53:05.932Z,0
2019-03-30T03:54:05.909Z,0
2019-03-30T03:55:05.881Z,0
2019-03-30T03:56:05.612Z,0
2019-03-30T03:57:05.642Z,0
2019-03-30T03:58:05.919Z,0
2019-03-30T03:59:05.807Z,0
2019-03-30T04:00:05.814Z,0
2019-03-30T04:01:05.775Z,0
2019-03-30T04:02:05.755Z,0
2019-03-30T04:03:05.282Z,0
2019-03-30T04:04:05.774Z,0
2019-03-30T04:05:05.461Z,0
2019-03-30T04:06:05.192Z,0
2019-03-30T04:07:05.437Z,0
2019-03-30T04:08:05.673Z,0
2019-03-30T04:09:05.396Z,0
2019-03-30T04:10:05.635Z,0
2019-03-30T04:11:05.599Z,0
2019-03-30T04:12:05.587Z,0
2019-03-30T04:13:09.421Z,0
2019-03-30T04:14:05.307Z,0
2019-03-30T04:15:05.541Z,0
2019-03-30T04:16:05.270Z,0
2019-03-30T04:17:05.264Z,0
2019-03-30T04:18:05.481Z,0
2019-03-30T04:19:05.477Z,0
2019-03-30T04:20:05.234Z,0
2019-03-30T04:21:05.431Z,4
2019-03-30T04:22:05.461Z,4
2019-03-30T04:23:05.408Z,0
2019-03-30T04:24:05.401Z,0
2019-03-30T04:25:05.378Z,4
2019-03-30T04:26:05.480Z,4
2019-03-30T04:27:05.338Z,4
2019-03-30T04:28:05.342Z,4
2019-03-30T04:29:05.305Z,4
2019-03-30T04:30:05.443Z,4
2019-03-30T04:31:05.037Z,8
2019-03-30T04:32:05.312Z,8
2019-03-30T04:33:05.242Z,12
2019-03-30T04:34:04.989Z,12
2019-03-30T04:35:05.264Z,16
2019-03-30T04:36:05.189Z,16
2019-03-30T04:37:05.198Z,20
2019-03-30T04:38:04.911Z,28
2019-03-30T04:39:04.897Z,32
2019-03-30T04:40:05.290Z,36
2019-03-30T04:41:04.853Z,44
2019-03-30T04:42:05.089Z,48
2019-03-30T04:43:04.902Z,56
2019-03-30T04:44:04.806Z,64
2019-03-30T04:45:05.155Z,72
2019-03-30T04:46:04.773Z,80
2019-03-30T04:47:05.003Z,88
2019-03-30T04:48:05.003Z,96
2019-03-30T04:49:04.976Z,108
2019-03-30T04:50:05.362Z,120
2019-03-30T04:51:04.930Z,128
2019-03-30T04:52:05.142Z,144
2019-03-30T04:53:04.912Z,152
2019-03-30T04:54:04.880Z,164
2019-03-30T04:55:05.119Z,180
2019-03-30T04:56:04.871Z,192
2019-03-30T04:57:04.829Z,212
2019-03-30T04:58:05.207Z,232
2019-03-30T04:59:04.798Z,256
2019-03-30T05:00:04.878Z,280
2019-03-30T05:01:04.768Z,308
2019-03-30T05:02:04.755Z,336
2019-03-30T05:03:04.738Z,364
2019-03-30T05:04:04.743Z,396
2019-03-30T05:05:04.699Z,432
2019-03-30T05:06:04.690Z,464
2019-03-30T05:07:04.671Z,500
2019-03-30T05:08:04.653Z,544
2019-03-30T05:09:04.664Z,580
2019-03-30T05:10:04.617Z,608
2019-03-30T05:11:04.602Z,644
2019-03-30T05:12:04.587Z,684
2019-03-30T05:13:04.575Z,724
2019-03-30T05:14:04.549Z,772
2019-03-30T05:15:04.285Z,820
2019-03-30T05:16:04.615Z,868
2019-03-30T05:17:04.508Z,908
2019-03-30T05:18:04.245Z,948
2019-03-30T05:19:04.463Z,1000
2019-03-30T05:20:04.452Z,1044
2019-03-30T05:21:04.433Z,1076
2019-03-30T05:22:21.422Z,1100
2019-03-30T05:23:04.399Z,1116
2019-03-30T05:24:04.381Z,1140
2019-03-30T05:25:04.380Z,1168
2019-03-30T05:26:04.377Z,1200
2019-03-30T05:27:04.330Z,1232
2019-03-30T05:28:04.312Z,1284
2019-03-30T05:29:04.300Z,1332
2019-03-30T05:30:04.317Z,1356
2019-03-30T05:31:04.278Z,1372
2019-03-30T05:32:04.330Z,1412
2019-03-30T05:33:12.793Z,1460
2019-03-30T05:34:04.219Z,1508
2019-03-30T05:35:03.959Z,1572
2019-03-30T05:36:04.180Z,1636
2019-03-30T05:37:04.164Z,1672
2019-03-30T05:38:06.053Z,1720
2019-03-30T05:39:04.137Z,1760
2019-03-30T05:40:04.122Z,1792
2019-03-30T05:41:04.113Z,1824
2019-03-30T05:42:04.080Z,1856
2019-03-30T05:43:03.817Z,1912
2019-03-30T05:44:04.056Z,1960
2019-03-30T05:45:05.224Z,1972
2019-03-30T05:46:04.025Z,2004
2019-03-30T05:47:03.780Z,2060
2019-03-30T05:48:03.984Z,2104
2019-03-30T05:49:04.050Z,2136
2019-03-30T05:50:04.003Z,2164
2019-03-30T05:51:03.934Z,2188
2019-03-30T05:52:03.929Z,2168
2019-03-30T05:53:03.911Z,2160
2019-03-30T05:54:03.652Z,2256
2019-03-30T05:55:03.965Z,2316
2019-03-30T05:56:03.861Z,2352
2019-03-30T05:57:03.605Z,2352
2019-03-30T05:58:03.821Z,2356
2019-03-30T05:59:03.814Z,2352
2019-03-30T06:00:03.839Z,2384
2019-03-30T06:01:03.925Z,2404
2019-03-30T06:02:03.267Z,2432
2019-03-30T06:03:03.744Z,2452
2019-03-30T06:04:03.728Z,2488
2019-03-30T06:05:08.403Z,2524
2019-03-30T06:06:03.471Z,2548
2019-03-30T06:07:03.699Z,2552
2019-03-30T06:08:03.735Z,2632
2019-03-30T06:09:03.647Z,2672
2019-03-30T06:10:03.385Z,2716
2019-03-30T06:11:03.618Z,2800
2019-03-30T06:12:03.611Z,2880
2019-03-30T06:13:03.590Z,2960
2019-03-30T06:14:03.578Z,3060
2019-03-30T06:15:03.310Z,3152
2019-03-30T06:16:03.536Z,3216
2019-03-30T06:17:03.524Z,3244
2019-03-30T06:18:03.542Z,3348
2019-03-30T06:19:02.999Z,3300
2019-03-30T06:20:03.230Z,3280
2019-03-30T06:21:03.214Z,3248
2019-03-30T06:22:03.461Z,3224
2019-03-30T06:23:03.432Z,3168
2019-03-30T06:24:03.166Z,3052
2019-03-30T06:25:03.400Z,3000
2019-03-30T06:26:03.385Z,2912
2019-03-30T06:27:03.375Z,2932
2019-03-30T06:28:03.422Z,2908
2019-03-30T06:29:03.092Z,2928
2019-03-30T06:30:03.323Z,2836
2019-03-30T06:31:03.318Z,2788
2019-03-30T06:32:03.045Z,2820
2019-03-30T06:33:03.289Z,2872
2019-03-30T06:34:03.260Z,2904
2019-03-30T06:35:02.996Z,3036
2019-03-30T06:36:03.025Z,3264
2019-03-30T06:37:03.054Z,3284
2019-03-30T06:38:03.211Z,3324
2019-03-30T06:39:03.215Z,3620
2019-03-30T06:40:03.172Z,4000
2019-03-30T06:41:02.919Z,3952
2019-03-30T06:42:03.149Z,4004
2019-03-30T06:43:03.138Z,4364
2019-03-30T06:44:02.876Z,4364
2019-03-30T06:45:03.099Z,4140
2019-03-30T06:46:03.085Z,5132
2019-03-30T06:47:03.072Z,5064
2019-03-30T06:48:03.061Z,4628
2019-03-30T06:49:03.046Z,4464
2019-03-30T06:50:03.031Z,4064
2019-03-30T06:51:03.015Z,3788
2019-03-30T06:52:03.004Z,3672
2019-03-30T06:53:05.906Z,3472
2019-03-30T06:54:02.989Z,3468
2019-03-30T06:55:02.964Z,3336
2019-03-30T06:56:02.966Z,3236
2019-03-30T06:57:03.088Z,3200
2019-03-30T06:58:02.935Z,3244
2019-03-30T06:59:02.671Z,3300
2019-03-30T07:00:02.900Z,3336
2019-03-30T07:01:02.885Z,3356
2019-03-30T07:02:02.886Z,3420
2019-03-30T07:03:02.867Z,3420
2019-03-30T07:04:02.376Z,3388
2019-03-30T07:05:02.841Z,3360
2019-03-30T07:06:02.904Z,3360
2019-03-30T07:07:02.398Z,3368
2019-03-30T07:08:02.804Z,3364
2019-03-30T07:09:02.789Z,3368
2019-03-30T07:10:02.834Z,3368
2019-03-30T07:11:02.522Z,3256
2019-03-30T07:12:02.510Z,3376
2019-03-30T07:13:02.746Z,3388
2019-03-30T07:14:02.493Z,3428
2019-03-30T07:15:02.789Z,3464
2019-03-30T07:16:02.713Z,3484
2019-03-30T07:17:06.457Z,3524
2019-03-30T07:18:02.708Z,3432
2019-03-30T07:19:02.682Z,3584
2019-03-30T07:20:02.858Z,3576
2019-03-30T07:21:02.675Z,3576
2019-03-30T07:22:02.664Z,3612
2019-03-30T07:23:16.262Z,3668
2019-03-30T07:24:02.631Z,3696
2019-03-30T07:25:02.512Z,3728
2019-03-30T07:26:02.611Z,3660
2019-03-30T07:27:02.363Z,3748
2019-03-30T07:28:02.381Z,3776
2019-03-30T07:29:02.590Z,3816
2019-03-30T07:30:02.752Z,3840
2019-03-30T07:31:02.554Z,3848
2019-03-30T07:32:02.305Z,3852
2019-03-30T07:33:02.545Z,3832
2019-03-30T07:34:02.273Z,3772
2019-03-30T07:35:02.783Z,3744
2019-03-30T07:36:02.500Z,3728
2019-03-30T07:37:02.501Z,3692
2019-03-30T07:38:02.533Z,3676
2019-03-30T07:39:02.483Z,3604
2019-03-30T07:40:02.712Z,3756
2019-03-30T07:41:02.459Z,3828
2019-03-30T07:42:02.453Z,3848
2019-03-30T07:43:02.434Z,3848
2019-03-30T07:44:02.422Z,3820
2019-03-30T07:45:02.165Z,3820
2019-03-30T07:46:02.403Z,3820
2019-03-30T07:47:02.398Z,3776
2019-03-30T07:48:02.457Z,3768
2019-03-30T07:49:02.370Z,3792
2019-03-30T07:50:02.369Z,3772
2019-03-30T07:51:02.412Z,3744
2019-03-30T07:52:02.343Z,3672
2019-03-30T07:53:02.325Z,3628
2019-03-30T07:54:02.319Z,3596
2019-03-30T07:55:02.071Z,3572
2019-03-30T07:56:15.472Z,3568
2019-03-30T07:57:21.644Z,3580
2019-03-30T07:58:02.378Z,3592
2019-03-30T07:59:02.362Z,3624
2019-03-30T08:00:02.014Z,3628
2019-03-30T08:01:02.261Z,3668
2019-03-30T08:02:01.994Z,3664
2019-03-30T08:03:02.231Z,3708
2019-03-30T08:04:02.226Z,3764
2019-03-30T08:05:02.214Z,3780
2019-03-30T08:06:01.969Z,3756
2019-03-30T08:07:01.956Z,3732
2019-03-30T08:08:02.235Z,3808
2019-03-30T08:09:02.175Z,3884
2019-03-30T08:10:02.166Z,3956
2019-03-30T08:11:02.163Z,3956
2019-03-30T08:12:02.152Z,3852
2019-03-30T08:13:02.144Z,3888
2019-03-30T08:14:02.127Z,3936
2019-03-30T08:15:02.150Z,3928
2019-03-30T08:16:02.111Z,3912
2019-03-30T08:17:02.093Z,3892
2019-03-30T08:18:04.851Z,3912
2019-03-30T08:19:02.086Z,3884
2019-03-30T08:20:02.074Z,3928
2019-03-30T08:21:01.830Z,3944
2019-03-30T08:22:02.060Z,3828
2019-03-30T08:23:02.117Z,3800
2019-03-30T08:24:02.031Z,3752
2019-03-30T08:25:02.038Z,3748
2019-03-30T08:26:02.011Z,3756
2019-03-30T08:27:02.010Z,3780
2019-03-30T08:28:01.753Z,3808
2019-03-30T08:29:01.989Z,3780
2019-03-30T08:30:01.982Z,3744
2019-03-30T08:31:02.000Z,3728
2019-03-30T08:32:01.973Z,3720
2019-03-30T08:33:01.947Z,3696
2019-03-30T08:34:01.991Z,3688
2019-03-30T08:35:01.947Z,3624
2019-03-30T08:36:01.678Z,3572
2019-03-30T08:37:04.190Z,3436
2019-03-30T08:38:01.912Z,3612
2019-03-30T08:39:01.897Z,3620
2019-03-30T08:40:01.892Z,3744
2019-03-30T08:41:01.880Z,3740
2019-03-30T08:42:01.874Z,3748
2019-03-30T08:43:01.858Z,3760
2019-03-30T08:44:01.899Z,3764
2019-03-30T08:45:01.857Z,3752
2019-03-30T08:46:01.836Z,3692
2019-03-30T08:47:01.915Z,3664
2019-03-30T08:48:01.823Z,3648
2019-03-30T08:49:01.560Z,3632
2019-03-30T08:50:01.815Z,3604
2019-03-30T08:51:01.787Z,3560
2019-03-30T08:52:01.537Z,3532
2019-03-30T08:53:01.846Z,3504
2019-03-30T08:54:02.362Z,3488
2019-03-30T08:55:01.509Z,3464
2019-03-30T08:56:01.496Z,3444
2019-03-30T08:57:01.745Z,3432
2019-03-30T08:58:01.729Z,3428
2019-03-30T08:59:01.736Z,3416
2019-03-30T09:00:01.713Z,3412
2019-03-30T09:01:01.698Z,3412
2019-03-30T09:02:01.703Z,3416
2019-03-30T09:03:01.441Z,3432
2019-03-30T09:04:04.438Z,3316
2019-03-30T09:05:01.423Z,3248
2019-03-30T09:06:01.166Z,3348
2019-03-30T09:07:01.648Z,3384
2019-03-30T09:08:01.643Z,3448
2019-03-30T09:09:01.395Z,3568
2019-03-30T09:10:01.623Z,3616
2019-03-30T09:11:01.382Z,3568
2019-03-30T09:12:01.401Z,3496
2019-03-30T09:13:01.655Z,3472
2019-03-30T09:14:01.594Z,3436
2019-03-30T09:15:01.635Z,3416
2019-03-30T09:16:01.574Z,3416
2019-03-30T09:17:01.588Z,3484
2019-03-30T09:18:01.073Z,3484
2019-03-30T09:19:01.547Z,3480
2019-03-30T09:20:01.543Z,3560
2019-03-30T09:21:01.530Z,3568
2019-03-30T09:22:01.277Z,3588
2019-03-30T09:23:01.510Z,3608
2019-03-30T09:24:16.042Z,3560
2019-03-30T09:25:01.506Z,3540
2019-03-30T09:26:01.496Z,3496
2019-03-30T09:27:01.481Z,3460
2019-03-30T09:28:01.471Z,3408
2019-03-30T09:29:01.460Z,3360
2019-03-30T09:30:01.508Z,3312
2019-03-30T09:31:01.459Z,3292
2019-03-30T09:32:16.074Z,3256
2019-03-30T09:33:01.429Z,3232
2019-03-30T09:34:01.422Z,3200
2019-03-30T09:35:01.412Z,3172
2019-03-30T09:36:01.408Z,3204
2019-03-30T09:37:01.661Z,3216
2019-03-30T09:38:01.393Z,3236
2019-03-30T09:39:01.391Z,3276
2019-03-30T09:40:01.385Z,3276
2019-03-30T09:41:01.368Z,3276
2019-03-30T09:42:01.114Z,3260
2019-03-30T09:43:01.465Z,3340
2019-03-30T09:44:01.109Z,3328
2019-03-30T09:45:01.343Z,3400
2019-03-30T09:46:01.324Z,3404
2019-03-30T09:47:01.318Z,3388
2019-03-30T09:48:01.391Z,3368
2019-03-30T09:49:01.302Z,3328
2019-03-30T09:50:04.732Z,3264
2019-03-30T09:51:01.049Z,3228
2019-03-30T09:52:01.286Z,3204
2019-03-30T09:53:01.274Z,3160
2019-03-30T09:54:01.264Z,3128
2019-03-30T09:55:01.264Z,3128
2019-03-30T09:56:01.250Z,3116
2019-03-30T09:57:00.999Z,3116
2019-03-30T09:58:01.242Z,3116
2019-03-30T09:59:01.245Z,3092
2019-03-30T10:00:01.272Z,3068
2019-03-30T10:01:01.214Z,3052
2019-03-30T10:02:01.198Z,3036
2019-03-30T10:03:01.215Z,3036
2019-03-30T10:04:01.189Z,3040
2019-03-30T10:05:01.176Z,3044
2019-03-30T10:06:01.175Z,3020
2019-03-30T10:07:01.190Z,3008
2019-03-30T10:08:01.152Z,3004
2019-03-30T10:09:01.146Z,2996
2019-03-30T10:10:01.195Z,3004
2019-03-30T10:11:01.149Z,3032
2019-03-30T10:12:01.126Z,3048
2019-03-30T10:13:01.251Z,3052
2019-03-30T10:14:01.104Z,3072
2019-03-30T10:15:01.101Z,3084
2019-03-30T10:16:00.868Z,3080
2019-03-30T10:17:01.091Z,3108
2019-03-30T10:18:01.167Z,3116
2019-03-30T10:19:01.074Z,3092
2019-03-30T10:20:11.838Z,3060
2019-03-30T10:21:00.827Z,3044
2019-03-30T10:22:01.056Z,3040
2019-03-30T10:23:01.049Z,3000
2019-03-30T10:24:01.041Z,2992
2019-03-30T10:25:03.033Z,3008
2019-03-30T10:26:01.024Z,3000
2019-03-30T10:27:01.008Z,2972
2019-03-30T10:28:01.013Z,2968
2019-03-30T10:29:00.997Z,2940
2019-03-30T10:30:00.989Z,2948
2019-03-30T10:31:01.043Z,2972
2019-03-30T10:32:04.614Z,2980
2019-03-30T10:33:01.000Z,2980
2019-03-30T10:34:00.970Z,2916
2019-03-30T10:35:00.973Z,2936
2019-03-30T10:36:00.702Z,2924
2019-03-30T10:37:00.707Z,2916
2019-03-30T10:38:00.930Z,2920
2019-03-30T10:39:00.680Z,2944
2019-03-30T10:40:00.917Z,2944
2019-03-30T10:41:00.965Z,2980
2019-03-30T10:42:00.911Z,2960
2019-03-30T10:43:00.910Z,2944
2019-03-30T10:44:00.644Z,2936
2019-03-30T10:45:00.880Z,2936
2019-03-30T10:46:00.873Z,2920
2019-03-30T10:47:00.869Z,2924
2019-03-30T10:48:00.959Z,2924
2019-03-30T10:49:00.855Z,2924
2019-03-30T10:50:00.600Z,2912
2019-03-30T10:51:00.658Z,2900
2019-03-30T10:52:01.152Z,2904
2019-03-30T10:53:00.827Z,2892
2019-03-30T10:54:00.817Z,2892
2019-03-30T10:55:00.569Z,2900
2019-03-30T10:56:00.805Z,2892
2019-03-30T10:57:00.803Z,2884
2019-03-30T10:58:03.209Z,2892
2019-03-30T10:59:00.789Z,2892
2019-03-30T11:00:00.775Z,2904
2019-03-30T11:01:03.774Z,2912
2019-03-30T11:02:00.522Z,2912
2019-03-30T11:03:00.771Z,2916
2019-03-30T11:04:00.851Z,2904
2019-03-30T11:05:00.503Z,2904
2019-03-30T11:06:00.747Z,2888
2019-03-30T11:07:00.731Z,2864
2019-03-30T11:08:00.494Z,2864
2019-03-30T11:09:00.720Z,2872
2019-03-30T11:10:00.783Z,2868
2019-03-30T11:11:00.704Z,2868
2019-03-30T11:12:00.730Z,2864
2019-03-30T11:13:00.693Z,2856
2019-03-30T11:14:00.680Z,2844
2019-03-30T11:15:00.678Z,2836
2019-03-30T11:16:00.673Z,2828
2019-03-30T11:17:00.734Z,2816
2019-03-30T11:18:00.653Z,2816
2019-03-30T11:19:00.652Z,2808
2019-03-30T11:20:00.651Z,2808
2019-03-30T11:21:00.634Z,2812
2019-03-30T11:22:03.123Z,2812
2019-03-30T11:23:00.382Z,2804
2019-03-30T11:24:00.377Z,2812
2019-03-30T11:25:14.346Z,2820
2019-03-30T11:26:00.362Z,2812
2019-03-30T11:27:00.355Z,2812
2019-03-30T11:28:00.591Z,2800
2019-03-30T11:29:00.339Z,2804
2019-03-30T11:30:00.575Z,2800
2019-03-30T11:31:00.089Z,2792
2019-03-30T11:32:00.625Z,2780
2019-03-30T11:33:00.411Z,2772
2019-03-30T11:34:00.556Z,2768
2019-03-30T11:35:00.553Z,2748
2019-03-30T11:36:00.573Z,2736
2019-03-30T11:37:00.557Z,2720
2019-03-30T11:38:00.529Z,2712
2019-03-30T11:39:00.520Z,2692
2019-03-30T11:40:00.513Z,2696
2019-03-30T11:41:00.505Z,2684
2019-03-30T11:42:00.530Z,2688
2019-03-30T11:43:00.489Z,2680
2019-03-30T11:44:00.509Z,2668
2019-03-30T11:45:00.296Z,2680
2019-03-30T11:46:00.518Z,2680
2019-03-30T11:47:00.474Z,2680
2019-03-30T11:48:00.527Z,2676
2019-03-30T11:49:00.467Z,2668
2019-03-30T11:50:00.408Z,2648
2019-03-30T11:51:00.447Z,2640
2019-03-30T11:52:00.194Z,2628
2019-03-30T11:53:00.423Z,2620
2019-03-30T11:54:00.421Z,2608
2019-03-30T11:55:00.416Z,2620
2019-03-30T11:56:00.405Z,2624
2019-03-30T11:57:00.399Z,2620
2019-03-30T11:58:00.160Z,2624
2019-03-30T11:59:00.387Z,2604
2019-03-30T12:00:00.408Z,2588
2019-03-30T12:01:00.383Z,2580
2019-03-30T12:02:00.371Z,2568
2019-03-30T12:03:00.368Z,2576
2019-03-30T12:04:00.110Z,2556
2019-03-30T12:05:00.372Z,2540
2019-03-30T12:06:00.347Z,2532
2019-03-30T12:07:00.345Z,2536
2019-03-30T12:08:00.336Z,2528
2019-03-30T12:09:00.325Z,2520
2019-03-30T12:10:00.354Z,2500
2019-03-30T12:11:00.322Z,2508
2019-03-30T12:12:00.358Z,2504
2019-03-30T12:13:00.310Z,2508
2019-03-30T12:14:00.300Z,2504
2019-03-30T12:15:00.485Z,2496
2019-03-30T12:16:00.037Z,2496
2019-03-30T12:17:00.079Z,2484
2019-03-30T12:18:00.027Z,2512
2019-03-30T12:19:00.392Z,2512
2019-03-30T12:20:00.009Z,2524
2019-03-30T12:21:00.252Z,2532
2019-03-30T12:22:00.000Z,2536
2019-03-30T12:23:00.246Z,2544
2019-03-30T12:23:59.985Z,2556
2019-03-30T12:24:59.986Z,2548
2019-03-30T12:26:00.218Z,2528
2019-03-30T12:27:02.480Z,2532
2019-03-30T12:28:00.229Z,2520
2019-03-30T12:29:00.207Z,2528
2019-03-30T12:30:00.470Z,2520
2019-03-30T12:31:00.191Z,2540
2019-03-30T12:31:59.940Z,2568
2019-03-30T12:33:00.184Z,2604
2019-03-30T12:34:00.192Z,2604
2019-03-30T12:35:00.374Z,2608
2019-03-30T12:35:59.917Z,2604
2019-03-30T12:37:02.960Z,2584
2019-03-30T12:38:00.163Z,2560
2019-03-30T12:39:00.140Z,2536
2019-03-30T12:40:02.980Z,2548
2019-03-30T12:41:00.140Z,2548
2019-03-30T12:42:00.128Z,2560
2019-03-30T12:42:59.871Z,2564
2019-03-30T12:44:00.116Z,2568
2019-03-30T12:44:59.854Z,2548
2019-03-30T12:45:59.854Z,2548
2019-03-30T12:47:00.089Z,2544
2019-03-30T12:48:00.145Z,2560
2019-03-30T12:49:00.085Z,2540
2019-03-30T12:50:00.107Z,2560
2019-03-30T12:51:00.073Z,2560
2019-03-30T12:52:00.067Z,2560
2019-03-30T12:53:00.204Z,2572
2019-03-30T12:54:00.054Z,2604
2019-03-30T12:54:59.600Z,2608
2019-03-30T12:56:00.039Z,2584
2019-03-30T12:56:59.784Z,2532
2019-03-30T12:57:59.784Z,2572
2019-03-30T12:59:00.032Z,2588
2019-03-30T13:02:01.483Z,2604
2019-03-30T13:02:11.337Z,2596
2019-03-30T13:03:11.327Z,2620
2019-03-30T13:04:11.074Z,2652
2019-03-30T13:07:14.328Z,2652
2019-03-30T13:07:23.958Z,2648
2019-03-30T13:08:23.949Z,2612
2019-03-30T13:09:23.945Z,2608
2019-03-30T13:10:23.946Z,2624
2019-03-30T13:11:23.938Z,2632
2019-03-30T13:12:23.716Z,2664
2019-03-30T13:13:23.923Z,2712
2019-03-30T13:14:23.914Z,2740
2019-03-30T13:15:23.918Z,2760
2019-03-30T13:16:26.320Z,2776
2019-03-30T13:17:23.900Z,2764
2019-03-30T13:18:23.891Z,2748
2019-03-30T13:19:23.637Z,2708
2019-03-30T13:20:23.877Z,2680
2019-03-30T13:21:23.637Z,2648
2019-03-30T13:22:23.865Z,2628
2019-03-30T13:23:23.613Z,2596
2019-03-30T13:24:23.912Z,2592
2019-03-30T13:25:23.982Z,2580
2019-03-30T13:26:23.843Z,2556
2019-03-30T13:27:23.842Z,2552
2019-03-30T13:28:23.880Z,2540
2019-03-30T13:29:23.831Z,2536
2019-03-30T13:30:23.827Z,2540
2019-03-30T13:31:23.814Z,2540
2019-03-30T13:32:23.809Z,2532
2019-03-30T13:33:23.824Z,2540
2019-03-30T13:34:23.795Z,2528
2019-03-30T13:35:23.801Z,2544
2019-03-30T13:36:23.792Z,2536
2019-03-30T13:37:23.798Z,2516
2019-03-30T13:38:28.192Z,2516
2019-03-30T13:39:23.762Z,2512
2019-03-30T13:40:23.511Z,2496
2019-03-30T13:41:23.759Z,2504
2019-03-30T13:42:23.754Z,2500
2019-03-30T13:43:23.746Z,2496
2019-03-30T13:44:23.492Z,2480
2019-03-30T13:45:23.735Z,2508
2019-03-30T13:46:23.723Z,2496
2019-03-30T13:47:23.723Z,2488
2019-03-30T13:48:23.525Z,2480
2019-03-30T13:49:23.712Z,2496